This is the latest recevied weather packets stored in our database for station/object LTAC. If no packets are shown the sender has not sent any weather packets the latest 10 day(s).
| Time | Temp. | Humidity | Pressure | Rain* | Wind** | Luminosity | Snow |
|---|---|---|---|---|---|---|---|
| 1778100304 | 7.22° C | 75% | 1018 hPa | - | - | - | - |
| 1778098504 | 7.78° C | 70% | 1018 hPa | - | - | - | - |
| 1778097605 | 7.78° C | 70% | 1018 hPa | - | - | - | - |
| 1778095805 | 8.89° C | 66% | 1018 hPa | - | - | - | - |
| 1778092204 | 8.89° C | 70% | 1017 hPa | - | - | - | - |
| 1778089503 | 11.11° C | 62% | 1017 hPa | - | - | - | - |
| 1778088604 | 11.11° C | 62% | 1017 hPa | - | - | - | - |
| 1778085904 | 12.78° C | 54% | 1017 hPa | - | - | - | - |
| 1778082304 | 13.89° C | 50% | 1016 hPa | - | - | - | - |
| 1778081404 | 13.89° C | 50% | 1016 hPa | - | - | - | - |
| 1778077805 | 13.89° C | 50% | 1016 hPa | - | - | - | - |
| 1778076904 | 13.89° C | 47% | 1016 hPa | - | - | - | - |
| 1778075104 | 13.89° C | 50% | 1016 hPa | - | - | - | - |
| 1778074204 | 13.89° C | 50% | 1016 hPa | - | - | - | - |
| 1778072404 | 13.89° C | 50% | 1016 hPa | - | - | - | - |
| 1778069704 | 12.78° C | 54% | 1017 hPa | - | - | - | - |
| 1778068804 | 12.78° C | 54% | 1017 hPa | - | - | - | - |
| 1778067004 | 12.78° C | 54% | 1017 hPa | - | - | - | - |
| 1778066104 | 12.78° C | 54% | 1017 hPa | - | - | - | - |
| 1778065205 | 12.78° C | 54% | 1017 hPa | - | - | - | - |
| 1778064304 | 12.78° C | 54% | 1017 hPa | - | - | - | - |
| 1778063403 | 12.78° C | 54% | 1017 hPa | - | - | - | - |
| 1778059804 | 12.22° C | 54% | 1017 hPa | - | - | - | - |
| 1778058004 | 11.11° C | 62% | 1017 hPa | - | - | - | - |
| 1778056204 | 10° C | 66% | 1017 hPa | - | - | - | - |
* Rain since midnight (hover to see other rain measurements)
** Current wind speed in m/s (hover to see current wind gust speed)